createdAt,value
2024-04-24T00:03:30.899Z,5.8602
2024-04-24T00:13:39.756Z,5.8427
2024-04-24T00:23:48.549Z,5.8294
2024-04-24T00:34:09.772Z,5.8078
2024-04-24T00:44:18.383Z,5.7902
2024-04-24T00:54:27.090Z,5.7769
2024-04-24T01:04:36.776Z,5.7446
2024-04-24T01:14:45.295Z,5.7038
2024-04-24T01:25:06.465Z,5.6480
2024-04-24T01:35:27.705Z,5.5773
2024-04-24T01:45:36.434Z,5.5010
2024-04-24T01:55:46.060Z,5.4304
2024-04-24T02:05:54.644Z,5.3604
2024-04-24T02:16:15.838Z,5.2951
2024-04-24T02:26:37.020Z,5.2459
2024-04-24T02:36:45.626Z,5.2046
2024-04-24T02:46:54.556Z,5.1798
2024-04-24T02:57:15.758Z,5.1594
2024-04-24T03:07:24.379Z,5.1606
2024-04-24T03:17:34.304Z,5.1658
2024-04-24T03:27:43.011Z,5.1662
2024-04-24T03:38:04.179Z,5.1622
2024-04-24T03:48:25.559Z,5.1688
2024-04-24T03:58:34.621Z,5.1760
2024-04-24T04:08:43.220Z,5.1829
2024-04-24T04:18:53.008Z,5.1792
2024-04-24T04:29:05.962Z,5.1833
2024-04-24T04:39:15.709Z,5.1798
2024-04-24T04:49:24.505Z,5.1912
2024-04-24T04:59:34.169Z,5.2090
2024-04-24T05:09:42.796Z,5.2290
2024-04-24T05:20:04.330Z,5.2559
2024-04-24T05:30:13.190Z,5.2888
2024-04-24T05:40:24.196Z,5.3227
2024-04-24T05:50:33.095Z,5.3710
2024-04-24T06:00:42.145Z,5.4242
2024-04-24T06:11:00.721Z,5.4898
2024-04-24T06:21:09.900Z,5.5719
2024-04-24T06:31:18.848Z,5.6771
2024-04-24T06:41:27.896Z,5.7800
2024-04-24T06:51:39.080Z,5.9031
2024-04-24T07:01:48.368Z,6.0535
2024-04-24T07:12:04.922Z,6.2229
2024-04-24T07:22:16.456Z,6.4254
2024-04-24T07:32:25.232Z,6.6426
2024-04-24T07:42:33.995Z,6.8412
2024-04-24T07:52:45.364Z,7.0259
2024-04-24T08:02:54.477Z,7.1779
2024-04-24T08:13:10.426Z,7.2952
2024-04-24T08:23:24.002Z,7.7531
2024-04-24T08:33:34.512Z,8.2404
2024-04-24T08:43:43.350Z,8.7063
2024-04-24T08:53:59.078Z,8.9581
2024-04-24T09:04:08.281Z,9.1815
2024-04-24T09:14:17.521Z,9.4615
2024-04-24T09:24:26.606Z,9.7085
2024-04-24T09:34:36.416Z,9.7444
2024-04-24T09:44:45.720Z,9.9981
2024-04-24T09:54:55.403Z,10.1098
2024-04-24T10:05:04.348Z,9.8485
2024-04-24T10:15:13.297Z,9.7452
2024-04-24T10:25:23.083Z,9.5627
2024-04-24T10:35:32.012Z,9.3667
2024-04-24T10:45:42.651Z,9.2148
2024-04-24T10:55:52.021Z,9.1175
2024-04-24T11:06:00.995Z,9.0540
2024-04-24T11:16:11.276Z,9.0700
2024-04-24T11:26:20.270Z,9.0350
2024-04-24T11:36:29.119Z,9.0288
2024-04-24T11:46:38.724Z,9.0688
2024-04-24T11:56:47.356Z,9.1533
2024-04-24T12:06:56.023Z,9.2387
2024-04-24T12:17:04.950Z,9.2642
2024-04-24T12:27:13.736Z,9.1660
2024-04-24T12:37:34.990Z,9.1527
2024-04-24T12:47:43.999Z,9.1550
2024-04-24T12:57:52.763Z,9.0925
2024-04-24T13:08:14.030Z,9.1080
2024-04-24T13:18:23.476Z,9.3042
2024-04-24T13:28:33.087Z,9.4329
2024-04-24T13:38:54.318Z,9.4565
2024-04-24T13:49:03.394Z,9.4344
2024-04-24T13:59:13.277Z,9.3854
2024-04-24T14:09:22.272Z,9.2821
2024-04-24T14:19:31.163Z,9.2054
2024-04-24T14:29:39.977Z,9.1750
2024-04-24T14:39:48.861Z,9.1648
2024-04-24T14:50:01.618Z,9.1292
2024-04-24T15:00:10.531Z,9.0837
2024-04-24T15:10:19.352Z,9.1058
2024-04-24T15:20:40.601Z,9.1141
2024-04-24T15:30:49.584Z,9.0979
2024-04-24T15:40:58.381Z,9.0623
2024-04-24T15:51:19.599Z,9.0016
2024-04-24T16:01:28.563Z,8.9346
2024-04-24T16:11:37.511Z,8.8383
2024-04-24T16:21:46.447Z,8.7204
2024-04-24T16:31:55.286Z,8.6467
2024-04-24T16:42:03.800Z,8.6102
2024-04-24T16:52:25.033Z,8.5602
2024-04-24T17:02:34.039Z,8.5200
2024-04-24T17:12:42.938Z,8.4529
2024-04-24T17:22:51.818Z,8.3406
2024-04-24T17:33:00.722Z,8.2596
2024-04-24T17:43:09.702Z,8.1777
2024-04-24T17:53:18.426Z,8.0931
2024-04-24T18:03:39.715Z,8.0010
2024-04-24T18:13:48.692Z,7.9200
2024-04-24T18:23:57.476Z,7.8329
2024-04-24T18:34:18.711Z,7.7563
2024-04-24T18:44:40.085Z,7.7102
2024-04-24T18:54:48.880Z,7.6694
2024-04-24T19:05:00.030Z,7.6025
2024-04-24T19:15:08.805Z,7.5163
2024-04-24T19:25:30.136Z,7.4212
2024-04-24T19:35:38.955Z,7.3465
2024-04-24T19:45:47.941Z,7.2933
2024-04-24T19:55:56.729Z,7.2473
2024-04-24T20:06:05.370Z,7.2177
2024-04-24T20:16:14.196Z,7.1660
2024-04-24T20:26:35.586Z,7.1312
2024-04-24T20:36:44.484Z,7.0921
2024-04-24T20:46:53.265Z,7.0442
2024-04-24T20:57:14.482Z,6.9869
2024-04-24T21:07:23.203Z,6.9262
2024-04-24T21:17:32.028Z,6.8837
2024-04-24T21:27:40.841Z,6.8190
2024-04-24T21:37:49.430Z,6.7458
2024-04-24T21:48:10.700Z,6.6741
2024-04-24T21:58:31.955Z,6.6404
2024-04-24T22:08:40.743Z,6.6231
2024-04-24T22:18:49.791Z,6.6023
2024-04-24T22:28:58.624Z,6.5823
2024-04-24T22:39:07.259Z,6.5771
2024-04-24T22:49:28.497Z,6.5665
2024-04-24T22:59:37.328Z,6.5502
2024-04-24T23:09:45.970Z,6.4925
2024-04-24T23:20:07.252Z,6.4745
2024-04-24T23:30:15.823Z,6.4560
2024-04-24T23:40:24.507Z,6.4354
2024-04-24T23:50:33.341Z,6.4173
